Time;durP1;ratioP1;P1;durP2;ratioP2;P2;SDS_P1;SDS_P2;PMS_P1;PMS_P2;Temp;Humidity;BMP_temperature;BMP_pressure;BME280_temperature;BME280_humidity;BME280_pressure;Samples;Min_cycle;Max_cycle;Signal;HPM_P1;HPM_P2
2023/09/09 00:02:10;;;;;;;12.52;11.15;;;18.80;99.90;;;;;;5057590;28;20113;-94
2023/09/09 00:04:36;;;;;;;13.98;12.65;;;18.90;99.90;;;;;;5023720;28;20048;-95
2023/09/09 00:07:03;;;;;;;16.20;14.50;;;18.90;99.90;;;;;;5025033;28;20498;-94
2023/09/09 00:09:29;;;;;;;15.27;13.85;;;18.90;99.90;;;;;;5036211;28;20052;-94
2023/09/09 00:11:55;;;;;;;15.65;14.05;;;18.90;99.90;;;;;;5043125;28;20810;-94
2023/09/09 00:14:21;;;;;;;14.20;12.90;;;18.90;99.90;;;;;;5022814;28;20051;-94
2023/09/09 00:16:47;;;;;;;13.45;12.15;;;18.90;99.90;;;;;;5030086;28;20036;-94
2023/09/09 00:19:13;;;;;;;14.10;12.80;;;18.90;99.90;;;;;;5021316;28;20091;-93
2023/09/09 00:21:38;;;;;;;13.60;12.38;;;18.90;99.90;;;;;;5040319;28;20111;-94
2023/09/09 00:24:04;;;;;;;13.07;11.80;;;18.90;99.90;;;;;;5051112;28;20122;-94
2023/09/09 00:26:31;;;;;;;11.98;10.88;;;18.90;99.90;;;;;;5025393;28;20051;-94
2023/09/09 00:29:00;;;;;;;12.68;11.48;;;18.90;99.90;;;;;;5040575;28;20051;-94
2023/09/09 00:31:26;;;;;;;12.38;11.27;;;18.90;99.90;;;;;;5023678;28;20052;-94
2023/09/09 00:33:53;;;;;;;12.95;11.85;;;18.90;99.90;;;;;;5025306;28;20058;-93
2023/09/09 00:36:18;;;;;;;12.02;10.90;;;18.90;99.90;;;;;;5043987;28;20043;-93
2023/09/09 00:38:44;;;;;;;11.52;10.43;;;18.90;99.90;;;;;;5048907;28;20036;-94
2023/09/09 00:41:14;;;;;;;12.23;9.93;;;18.80;99.90;;;;;;5033101;28;20797;-93
2023/09/09 00:43:40;;;;;;;11.20;10.05;;;18.90;99.90;;;;;;5061270;28;20050;-92
2023/09/09 00:46:10;;;;;;;12.23;11.13;;;18.80;99.90;;;;;;5063339;28;20055;-94
2023/09/09 00:48:37;;;;;;;9.15;8.35;;;18.80;99.90;;;;;;5080032;28;20496;-93
2023/09/09 00:51:04;;;;;;;8.02;7.22;;;18.80;99.90;;;;;;5079464;28;20037;-94
2023/09/09 00:53:31;;;;;;;7.78;7.07;;;18.80;99.90;;;;;;5061637;28;20101;-93
2023/09/09 00:55:58;;;;;;;9.30;8.45;;;18.80;99.90;;;;;;5083758;28;20119;-92
2023/09/09 00:58:24;;;;;;;9.90;8.90;;;18.70;99.90;;;;;;5078968;28;20036;-94
2023/09/09 01:00:50;;;;;;;11.27;10.23;;;18.70;99.90;;;;;;5069576;28;20088;-93
2023/09/09 01:03:16;;;;;;;12.82;11.73;;;18.70;99.90;;;;;;5040918;28;20036;-92
2023/09/09 01:05:42;;;;;;;11.70;10.68;;;18.70;99.90;;;;;;5058279;28;20054;-93
2023/09/09 01:08:08;;;;;;;11.95;10.85;;;18.70;99.90;;;;;;5065781;28;20044;-93
2023/09/09 01:10:34;;;;;;;12.37;11.13;;;18.70;99.90;;;;;;5055024;28;20515;-92
2023/09/09 01:12:59;;;;;;;12.60;11.40;;;18.70;99.90;;;;;;5058675;28;20040;-92
2023/09/09 01:15:26;;;;;;;12.18;11.18;;;18.70;99.90;;;;;;5060378;28;20046;-93
2023/09/09 01:17:52;;;;;;;11.05;10.10;;;18.70;99.90;;;;;;5058515;28;20035;-92
2023/09/09 01:20:20;;;;;;;12.18;11.02;;;18.70;99.90;;;;;;5060651;28;20047;-92
2023/09/09 01:22:49;;;;;;;11.75;10.65;;;18.70;99.90;;;;;;5064067;28;20043;-92
2023/09/09 01:25:16;;;;;;;11.18;10.23;;;18.70;99.90;;;;;;5068431;28;20066;-93
2023/09/09 01:27:42;;;;;;;14.85;13.55;;;18.60;99.90;;;;;;5057210;28;20036;-93
2023/09/09 01:30:08;;;;;;;15.20;13.68;;;18.60;99.90;;;;;;5058160;28;20039;-93
2023/09/09 01:32:35;;;;;;;19.42;17.63;;;18.60;99.90;;;;;;5067915;28;20105;-93
2023/09/09 01:35:06;;;;;;;17.57;15.87;;;18.50;99.90;;;;;;5050289;28;20044;-94
2023/09/09 01:37:33;;;;;;;15.13;13.73;;;18.50;99.90;;;;;;5061088;28;20801;-93
2023/09/09 01:40:09;;;;;;;13.75;12.45;;;18.50;99.90;;;;;;5035173;28;20659;-93
2023/09/09 01:42:35;;;;;;;13.77;12.40;;;18.50;99.90;;;;;;5070285;28;20640;-92
2023/09/09 01:45:01;;;;;;;18.55;16.13;;;18.50;99.90;;;;;;5064476;28;20051;-93
2023/09/09 01:47:26;;;;;;;15.52;13.93;;;18.50;99.90;;;;;;5038516;28;20089;-92
2023/09/09 01:49:52;;;;;;;14.35;13.05;;;18.50;99.90;;;;;;5043735;28;20039;-92
2023/09/09 01:52:18;;;;;;;15.73;14.23;;;18.40;99.90;;;;;;5056151;28;20039;-93
2023/09/09 01:54:44;;;;;;;14.15;12.68;;;18.30;99.90;;;;;;5051713;28;20032;-93
2023/09/09 01:57:09;;;;;;;13.48;11.43;;;18.30;99.90;;;;;;5036054;28;20036;-92
2023/09/09 01:59:35;;;;;;;12.90;11.70;;;18.20;99.90;;;;;;5041697;28;20068;-92
2023/09/09 02:02:01;;;;;;;14.43;11.50;;;18.20;99.90;;;;;;5062830;28;20070;-93
2023/09/09 02:04:27;;;;;;;12.90;11.60;;;18.30;99.90;;;;;;5058923;28;20106;-93
2023/09/09 02:06:53;;;;;;;12.98;11.75;;;18.10;99.90;;;;;;5060912;28;20040;-93
2023/09/09 02:09:18;;;;;;;12.00;10.90;;;18.10;99.90;;;;;;5059017;28;20048;-93
2023/09/09 02:11:44;;;;;;;14.20;12.77;;;18.10;99.90;;;;;;5062515;28;20040;-92
2023/09/09 02:14:10;;;;;;;14.77;13.38;;;18.10;99.90;;;;;;5043471;28;20383;-94
2023/09/09 02:16:36;;;;;;;14.43;13.02;;;;;;;;;;5060901;28;20042;-93
2023/09/09 02:19:02;;;;;;;16.23;13.18;;;18.10;99.90;;;;;;5063960;28;20035;-93
2023/09/09 02:21:29;;;;;;;14.07;12.77;;;18.00;99.90;;;;;;5033656;28;20042;-93
2023/09/09 02:23:54;;;;;;;14.45;13.15;;;18.20;99.90;;;;;;5061234;28;20046;-93
2023/09/09 02:26:20;;;;;;;15.00;13.60;;;18.20;99.90;;;;;;5056037;28;20036;-92
2023/09/09 02:28:46;;;;;;;16.13;14.57;;;18.20;99.90;;;;;;5059198;28;20126;-93
2023/09/09 02:31:12;;;;;;;16.50;14.70;;;18.30;99.90;;;;;;5049119;28;20039;-92
2023/09/09 02:33:37;;;;;;;14.25;12.88;;;18.40;99.90;;;;;;5041820;28;20038;-93
2023/09/09 02:36:03;;;;;;;14.82;13.43;;;18.30;99.90;;;;;;5061073;28;20046;-94
2023/09/09 02:38:29;;;;;;;16.23;14.52;;;18.00;99.90;;;;;;5041889;28;20039;-93
2023/09/09 02:40:55;;;;;;;16.85;15.25;;;18.20;99.90;;;;;;5062117;28;20686;-93
2023/09/09 02:43:21;;;;;;;26.77;24.08;;;18.00;99.90;;;;;;5056046;28;20513;-93
2023/09/09 02:45:46;;;;;;;22.25;19.95;;;18.10;99.90;;;;;;5082498;28;20093;-92
2023/09/09 02:48:12;;;;;;;15.52;13.95;;;18.10;99.90;;;;;;5073110;28;20042;-93
2023/09/09 02:50:38;;;;;;;15.55;13.98;;;18.00;99.90;;;;;;5072983;28;20054;-93
2023/09/09 02:53:03;;;;;;;15.88;14.38;;;18.10;99.90;;;;;;5057654;28;20478;-92
2023/09/09 02:55:29;;;;;;;16.63;15.07;;;18.20;99.90;;;;;;5061468;28;20075;-93
2023/09/09 02:57:55;;;;;;;15.38;13.90;;;18.10;99.90;;;;;;5052992;28;20635;-93
2023/09/09 03:00:21;;;;;;;13.98;12.70;;;18.30;99.90;;;;;;5057816;28;20132;-94
2023/09/09 03:02:47;;;;;;;15.68;14.07;;;18.40;99.90;;;;;;5045162;28;20047;-93
2023/09/09 03:05:12;;;;;;;16.08;14.48;;;18.20;99.90;;;;;;5042775;28;20044;-93
2023/09/09 03:07:44;;;;;;;15.15;13.60;;;18.80;99.90;;;;;;5060021;28;20044;-93
2023/09/09 03:10:10;;;;;;;14.90;13.57;;;18.10;99.90;;;;;;5058014;28;20039;-93
2023/09/09 03:12:36;;;;;;;17.23;13.35;;;17.90;99.90;;;;;;5065369;28;20039;-94
2023/09/09 03:15:05;;;;;;;15.32;13.82;;;18.10;99.90;;;;;;5043395;28;20040;-93
2023/09/09 03:17:31;;;;;;;14.10;12.90;;;18.10;99.90;;;;;;5078944;28;20035;-94
2023/09/09 03:19:57;;;;;;;15.38;14.02;;;18.30;99.90;;;;;;5076909;28;20040;-94
2023/09/09 03:22:23;;;;;;;13.02;11.82;;;18.50;99.90;;;;;;5076687;28;20745;-93
2023/09/09 03:24:49;;;;;;;13.95;12.63;;;18.40;99.90;;;;;;5061263;28;20036;-93
2023/09/09 03:27:14;;;;;;;14.73;13.25;;;18.00;99.90;;;;;;5071740;28;20032;-93
2023/09/09 03:29:40;;;;;;;13.18;11.98;;;18.00;99.90;;;;;;5070999;28;20050;-93
2023/09/09 03:32:35;;;;;;;13.25;12.07;;;17.90;99.90;;;;;;5074710;28;20058;-92
2023/09/09 03:35:01;;;;;;;15.00;13.50;;;18.20;99.90;;;;;;5088417;28;20102;-93
2023/09/09 03:37:27;;;;;;;15.07;13.52;;;18.20;99.90;;;;;;5050781;28;20483;-93
2023/09/09 03:39:53;;;;;;;13.95;12.65;;;18.10;99.90;;;;;;5071680;28;20036;-94
2023/09/09 03:42:18;;;;;;;15.20;13.65;;;18.30;99.90;;;;;;5055895;28;20047;-93
2023/09/09 03:44:44;;;;;;;14.55;13.15;;;18.30;99.90;;;;;;5068483;28;20128;-93
2023/09/09 03:47:10;;;;;;;15.13;13.75;;;18.40;99.90;;;;;;5035148;28;20036;-94
2023/09/09 03:49:35;;;;;;;15.02;13.23;;;18.00;99.90;;;;;;5039224;28;20051;-94
2023/09/09 03:52:02;;;;;;;13.95;12.55;;;17.10;99.90;;;;;;5041650;28;20035;-94
2023/09/09 03:54:28;;;;;;;14.55;13.25;;;18.50;99.90;;;;;;5042442;28;20040;-94
2023/09/09 03:56:54;;;;;;;15.55;14.05;;;17.90;99.90;;;;;;5057423;28;20036;-93
2023/09/09 03:59:19;;;;;;;15.20;13.80;;;18.20;99.90;;;;;;5044072;28;20031;-94
2023/09/09 04:01:45;;;;;;;15.20;13.73;;;18.20;99.90;;;;;;5043016;28;20036;-94
2023/09/09 04:04:11;;;;;;;15.57;14.18;;;18.50;99.90;;;;;;5044592;28;20070;-93
2023/09/09 04:06:37;;;;;;;16.15;14.55;;;17.70;99.90;;;;;;5048067;28;20466;-94
2023/09/09 04:09:03;;;;;;;15.45;14.05;;;17.80;99.90;;;;;;5045388;28;20051;-93
2023/09/09 04:11:28;;;;;;;18.08;16.38;;;17.70;99.90;;;;;;5052283;28;20067;-94
2023/09/09 04:13:54;;;;;;;16.50;14.80;;;18.00;99.90;;;;;;5048940;28;20039;-93
2023/09/09 04:16:20;;;;;;;16.45;14.85;;;18.70;99.90;;;;;;5061847;27;20070;-94
2023/09/09 04:18:46;;;;;;;15.48;13.98;;;18.00;99.90;;;;;;5034473;28;20102;-94
2023/09/09 04:21:11;;;;;;;15.70;14.15;;;17.80;99.90;;;;;;5047901;28;20044;-94
2023/09/09 04:23:37;;;;;;;15.45;14.07;;;17.80;99.90;;;;;;5072085;28;20082;-95
2023/09/09 04:26:03;;;;;;;17.27;15.68;;;18.10;99.90;;;;;;5060024;28;20035;-94
2023/09/09 04:28:29;;;;;;;15.93;14.32;;;17.80;99.90;;;;;;5062093;28;20044;-94
2023/09/09 04:30:54;;;;;;;16.00;14.50;;;17.90;99.90;;;;;;5045675;28;20551;-94
2023/09/09 04:33:20;;;;;;;16.08;14.48;;;17.90;99.90;;;;;;5062960;28;20775;-94
2023/09/09 04:35:46;;;;;;;16.13;14.50;;;17.60;99.90;;;;;;5045835;28;20035;-93
2023/09/09 04:38:12;;;;;;;17.80;16.00;;;17.60;99.90;;;;;;5092093;28;20035;-94
2023/09/09 04:40:40;;;;;;;17.42;15.73;;;18.00;99.90;;;;;;5071026;28;20044;-94
2023/09/09 04:43:06;;;;;;;16.73;15.07;;;18.00;99.90;;;;;;5058783;28;20123;-94
2023/09/09 04:45:31;;;;;;;16.15;14.55;;;18.00;99.90;;;;;;5074909;28;20044;-94
2023/09/09 04:47:57;;;;;;;16.90;15.30;;;18.10;99.90;;;;;;5056164;28;20132;-94
2023/09/09 04:50:23;;;;;;;14.77;13.35;;;18.40;99.90;;;;;;5078694;28;20044;-94
2023/09/09 04:52:49;;;;;;;15.50;13.90;;;17.60;99.90;;;;;;5059513;28;20040;-93
2023/09/09 04:55:15;;;;;;;15.45;13.95;;;17.40;99.90;;;;;;5060562;28;20043;-92
2023/09/09 04:57:41;;;;;;;15.90;14.45;;;17.70;99.90;;;;;;5063932;28;20038;-93
2023/09/09 05:00:08;;;;;;;15.68;14.18;;;17.60;99.90;;;;;;5052643;28;20126;-93
2023/09/09 05:02:34;;;;;;;15.48;13.93;;;18.10;99.90;;;;;;5061556;28;20039;-94
2023/09/09 05:05:04;;;;;;;16.00;14.40;;;18.30;99.90;;;;;;5063445;28;20040;-94
2023/09/09 05:07:34;;;;;;;15.13;13.73;;;17.30;99.90;;;;;;5061170;28;20123;-94
2023/09/09 05:10:04;;;;;;;14.95;13.18;;;17.90;99.90;;;;;;5065190;28;20039;-94
2023/09/09 05:12:31;;;;;;;14.77;13.48;;;17.70;99.90;;;;;;5057332;28;20168;-94
2023/09/09 05:14:57;;;;;;;14.25;12.50;;;17.40;99.90;;;;;;5059431;28;20067;-94
2023/09/09 05:17:26;;;;;;;14.88;13.48;;;17.40;99.90;;;;;;5072364;28;20032;-93
2023/09/09 05:19:52;;;;;;;14.50;13.20;;;18.60;99.90;;;;;;5062387;28;20039;-94
2023/09/09 05:22:18;;;;;;;14.82;13.32;;;17.60;99.90;;;;;;5049357;28;20040;-94
2023/09/09 05:24:44;;;;;;;15.20;13.70;;;17.70;99.90;;;;;;5055946;28;20039;-94
2023/09/09 05:27:10;;;;;;;16.30;14.70;;;17.50;99.90;;;;;;5058330;28;20040;-94
2023/09/09 05:29:36;;;;;;;15.43;13.93;;;17.50;99.90;;;;;;5041449;28;20086;-94
2023/09/09 05:32:01;;;;;;;16.67;15.00;;;17.90;99.90;;;;;;5058611;28;20131;-94
2023/09/09 05:34:27;;;;;;;15.70;14.10;;;18.00;99.90;;;;;;5053970;28;20040;-95
2023/09/09 05:36:53;;;;;;;14.57;13.18;;;17.80;99.90;;;;;;5049970;28;20032;-95
2023/09/09 05:39:18;;;;;;;16.33;14.75;;;17.70;99.90;;;;;;5059304;28;20039;-93
2023/09/09 05:41:44;;;;;;;14.77;13.38;;;18.00;99.90;;;;;;5054464;28;20638;-95
2023/09/09 05:44:10;;;;;;;15.48;13.95;;;18.00;99.90;;;;;;5020384;28;1167471;-94
2023/09/09 05:46:36;;;;;;;14.52;13.13;;;18.00;99.90;;;;;;5042199;28;20112;-94
2023/09/09 05:49:01;;;;;;;15.32;13.82;;;18.20;99.90;;;;;;5034381;28;20039;-93
2023/09/09 05:51:27;;;;;;;14.43;13.13;;;18.30;99.90;;;;;;5056134;28;20032;-93
2023/09/09 05:53:53;;;;;;;15.48;12.98;;;18.20;99.90;;;;;;5049774;28;20479;-94
2023/09/09 05:57:09;;;;;;;14.85;12.00;;;18.00;99.90;;;;;;5072870;28;20115;-94
2023/09/09 05:59:39;;;;;;;13.10;11.90;;;18.10;99.90;;;;;;5109550;27;20043;-95
2023/09/09 06:02:08;;;;;;;13.43;12.23;;;18.10;99.90;;;;;;5072847;28;20058;-96
2023/09/09 06:04:37;;;;;;;12.68;11.57;;;18.40;99.90;;;;;;5054212;28;20074;-95
2023/09/09 06:07:04;;;;;;;12.25;11.05;;;18.50;99.90;;;;;;5074833;28;20055;-95
2023/09/09 06:09:30;;;;;;;13.80;12.55;;;18.60;99.90;;;;;;5052546;28;20044;-96
2023/09/09 06:11:56;;;;;;;12.63;11.52;;;18.70;99.90;;;;;;5065906;28;20036;-95
2023/09/09 06:14:21;;;;;;;13.85;12.60;;;18.90;99.90;;;;;;5071331;28;20031;-95
2023/09/09 06:18:01;;;;;;;;;;;;;;;;;;;;;
2023/09/09 06:36:58;;;;;;;;;;;;;;;;;;;;;
2023/09/09 06:53:43;;;;;;;14.38;12.55;;;20.30;99.90;;;;;;5109268;27;20610;-89
2023/09/09 06:56:11;;;;;;;12.18;11.07;;;21.40;99.90;;;;;;5073085;28;20049;-90
2023/09/09 06:58:40;;;;;;;13.15;11.95;;;21.60;99.90;;;;;;5058723;28;20034;-92
2023/09/09 07:01:10;;;;;;;12.75;11.57;;;22.30;99.90;;;;;;5127215;27;20499;-93
2023/09/09 07:03:36;;;;;;;11.40;10.40;;;22.70;99.90;;;;;;5074231;28;20035;-92
2023/09/09 07:06:05;;;;;;;11.68;10.48;;;22.80;99.90;;;;;;5075130;28;20047;-95
2023/09/09 07:08:30;;;;;;;12.80;11.52;;;22.80;99.90;;;;;;5051219;28;20078;-91
2023/09/09 07:10:57;;;;;;;13.23;11.82;;;22.80;99.90;;;;;;5072075;28;20185;-90
2023/09/09 07:13:26;;;;;;;13.00;11.80;;;22.80;99.90;;;;;;5090230;28;20105;-89
2023/09/09 07:15:53;;;;;;;12.20;11.05;;;22.90;99.90;;;;;;5088132;28;20051;-90
2023/09/09 07:18:21;;;;;;;11.38;10.38;;;23.30;99.90;;;;;;5082354;28;20044;-90
2023/09/09 07:20:48;;;;;;;12.80;11.50;;;23.30;99.90;;;;;;5083695;28;20547;-89
2023/09/09 07:23:18;;;;;;;12.63;11.43;;;23.50;99.90;;;;;;5089206;28;20126;-90
2023/09/09 07:25:46;;;;;;;13.45;10.75;;;23.60;99.90;;;;;;5079167;28;20454;-90
2023/09/09 07:28:12;;;;;;;12.38;11.13;;;23.60;99.90;;;;;;5063391;28;20044;-91
2023/09/09 07:30:38;;;;;;;14.33;11.00;;;23.60;99.90;;;;;;5074297;28;20027;-91
2023/09/09 07:33:04;;;;;;;12.63;11.20;;;23.70;99.90;;;;;;5085033;28;20043;-90
2023/09/09 07:35:30;;;;;;;13.10;11.80;;;24.10;99.90;;;;;;5089229;28;20058;-90
2023/09/09 07:37:56;;;;;;;13.23;12.07;;;24.60;99.90;;;;;;5081230;28;20063;-91
2023/09/09 07:40:21;;;;;;;12.60;11.40;;;25.20;99.90;;;;;;5085543;28;20433;-88
2023/09/09 07:42:50;;;;;;;12.70;11.60;;;25.50;99.90;;;;;;5066268;28;20048;-87
2023/09/09 07:45:16;;;;;;;13.48;12.10;;;25.80;99.90;;;;;;5086037;28;20075;-90
2023/09/09 07:47:42;;;;;;;12.10;11.07;;;26.30;99.90;;;;;;5062456;28;20067;-87
2023/09/09 07:50:08;;;;;;;13.15;11.95;;;26.30;99.90;;;;;;5066770;28;20044;-90
2023/09/09 07:52:34;;;;;;;13.23;11.85;;;26.30;99.90;;;;;;5067480;28;20052;-91
2023/09/09 07:55:00;;;;;;;13.33;12.13;;;26.50;99.90;;;;;;5070801;28;20119;-91
2023/09/09 07:57:25;;;;;;;12.67;11.37;;;26.70;99.90;;;;;;5061195;28;20762;-91
2023/09/09 07:59:51;;;;;;;12.03;10.83;;;27.40;99.90;;;;;;5090895;28;20044;-91
2023/09/09 08:02:17;;;;;;;12.63;11.43;;;28.10;99.90;;;;;;5092792;28;20043;-91
2023/09/09 08:04:43;;;;;;;12.27;11.17;;;28.70;99.90;;;;;;5033064;28;20048;-90
2023/09/09 08:07:08;;;;;;;13.80;12.63;;;29.10;99.90;;;;;;5034321;28;20039;-86
2023/09/09 08:09:34;;;;;;;12.60;11.50;;;29.50;99.90;;;;;;5067059;28;20087;-90
2023/09/09 08:12:03;;;;;;;12.13;11.03;;;29.90;99.90;;;;;;5103442;28;20501;-90
2023/09/09 08:14:30;;;;;;;12.88;11.73;;;30.10;99.90;;;;;;5059054;28;20089;-91
2023/09/09 08:16:56;;;;;;;13.27;10.90;;;30.40;99.90;;;;;;5051938;28;20044;-90
2023/09/09 08:19:22;;;;;;;11.75;10.60;;;30.60;99.90;;;;;;5073990;28;20133;-90
2023/09/09 08:21:47;;;;;;;12.07;10.90;;;30.80;99.90;;;;;;5079252;28;20039;-91
2023/09/09 08:24:13;;;;;;;12.27;10.95;;;31.00;99.90;;;;;;5062575;28;20470;-91
2023/09/09 08:26:39;;;;;;;12.98;10.48;;;31.00;99.90;;;;;;5072279;28;20815;-90
2023/09/09 08:29:05;;;;;;;11.57;10.57;;;31.00;99.90;;;;;;5070597;28;20044;-89
2023/09/09 08:31:30;;;;;;;13.17;11.97;;;31.00;99.90;;;;;;5069045;28;20477;-87
2023/09/09 08:33:56;;;;;;;11.17;10.07;;;31.00;99.90;;;;;;5053415;28;20040;-89
2023/09/09 08:36:22;;;;;;;12.55;11.40;;;31.00;99.90;;;;;;5051066;28;20052;-92
2023/09/09 08:38:48;;;;;;;11.87;10.87;;;30.80;99.90;;;;;;5071990;28;20043;-95
2023/09/09 08:41:25;;;;;;;12.07;10.70;;;30.50;99.90;;;;;;5056149;28;20131;-95
2023/09/09 08:44:08;;;;;;;;;;;30.20;99.90;;;;;;5099108;28;20454;-93
2023/09/09 08:46:34;;;;;;;12.00;10.90;;;29.70;99.90;;;;;;5071291;28;20312;-94
2023/09/09 08:49:04;;;;;;;12.35;11.20;;;29.30;99.90;;;;;;5055444;28;20068;-93
2023/09/09 08:51:49;;;;;;;11.73;10.57;;;29.00;99.90;;;;;;5071633;28;20442;-93
2023/09/09 08:54:15;;;;;;;12.18;11.18;;;28.60;99.90;;;;;;5088008;28;20138;-94
2023/09/09 08:56:42;;;;;;;13.63;12.43;;;28.30;99.90;;;;;;5053661;28;20055;-91
2023/09/09 08:59:08;;;;;;;13.50;12.40;;;28.00;99.90;;;;;;5071601;28;20126;-91
2023/09/09 09:01:35;;;;;;;15.40;11.68;;;27.70;99.90;;;;;;5088860;28;20040;-91
2023/09/09 09:04:01;;;;;;;14.02;12.57;;;27.50;99.90;;;;;;5062104;28;20479;-93
2023/09/09 09:06:28;;;;;;;12.57;11.27;;;27.30;99.90;;;;;;5045753;28;20097;-90
2023/09/09 09:08:53;;;;;;;12.65;11.55;;;27.20;99.90;;;;;;5046102;28;20462;-91
2023/09/09 09:11:20;;;;;;;12.93;11.47;;;27.10;99.90;;;;;;5045666;28;20047;-93
2023/09/09 09:13:47;;;;;;;12.70;11.40;;;27.10;99.90;;;;;;5051906;28;20040;-91
2023/09/09 09:16:13;;;;;;;13.45;12.25;;;27.10;99.90;;;;;;5052278;28;20775;-91
2023/09/09 09:18:39;;;;;;;12.00;10.93;;;27.10;99.90;;;;;;5060582;28;20048;-92
2023/09/09 09:21:11;;;;;;;11.43;10.30;;;27.00;99.90;;;;;;5051689;28;20047;-93
2023/09/09 09:23:44;;;;;;;12.52;11.40;;;27.10;99.90;;;;;;5095421;28;20075;-94
2023/09/09 09:26:27;;;;;;;12.18;11.18;;;27.00;99.90;;;;;;5052604;28;20040;-93
2023/09/09 09:28:55;;;;;;;11.15;10.15;;;27.10;99.90;;;;;;5071986;28;20115;-94
2023/09/09 09:31:25;;;;;;;10.85;9.95;;;27.10;99.90;;;;;;5097355;28;20048;-93
2023/09/09 09:33:56;;;;;;;10.55;9.52;;;27.20;99.90;;;;;;5070164;28;20124;-94
2023/09/09 09:36:25;;;;;;;10.68;9.68;;;27.20;99.90;;;;;;5072721;28;20082;-88
2023/09/09 09:38:51;;;;;;;10.95;9.73;;;27.20;99.90;;;;;;5066443;28;20036;-92
2023/09/09 09:41:18;;;;;;;9.10;8.32;;;27.20;99.90;;;;;;5070121;28;20127;-94
2023/09/09 09:43:48;;;;;;;9.45;8.55;;;27.40;99.90;;;;;;5071130;28;20040;-95
2023/09/09 09:46:15;;;;;;;9.20;8.35;;;27.50;99.90;;;;;;5079146;28;20033;-94
2023/09/09 09:48:41;;;;;;;9.77;8.88;;;27.60;99.90;;;;;;5070793;28;20036;-93
2023/09/09 09:51:07;;;;;;;8.60;7.90;;;27.50;99.90;;;;;;5054734;28;20040;-94
2023/09/09 09:53:40;;;;;;;10.50;9.10;;;27.50;99.90;;;;;;5047041;28;20466;-94
2023/09/09 09:56:09;;;;;;;8.50;7.72;;;27.60;99.90;;;;;;5071299;28;20494;-94
2023/09/09 09:58:38;;;;;;;9.13;8.20;;;27.70;99.90;;;;;;5053921;28;20518;-94
2023/09/09 10:01:13;;;;;;;9.35;8.52;;;27.80;99.90;;;;;;5072341;28;20047;-94
2023/09/09 10:04:05;;;;;;;8.95;8.23;;;27.80;99.90;;;;;;5053822;28;20092;-95
2023/09/09 10:06:33;;;;;;;10.38;9.35;;;27.80;99.90;;;;;;5070248;28;20043;-94
2023/09/09 10:09:08;;;;;;;10.00;9.10;;;27.80;99.90;;;;;;5069513;28;20046;-92
2023/09/09 10:11:44;;;;;;;10.63;9.65;;;27.70;99.90;;;;;;5070501;28;20498;-93
2023/09/09 10:14:20;;;;;;;11.00;9.88;;;27.70;99.90;;;;;;5070588;28;20052;-94
2023/09/09 10:16:51;;;;;;;11.30;10.30;;;27.70;99.90;;;;;;5070037;28;20566;-93
2023/09/09 10:19:18;;;;;;;11.48;10.38;;;27.70;99.90;;;;;;5070176;28;20054;-93
2023/09/09 10:23:23;;;;;;;;;;;;;;;;;;;;;
2023/09/09 10:33:39;;;;;;;;;;;27.90;99.90;;;;;;4911388;29;20491;-94
2023/09/09 10:40:36;;;;;;;13.10;11.80;;;27.90;99.90;;;;;;4912862;29;20129;-94
2023/09/09 10:46:55;;;;;;;13.20;11.93;;;27.90;99.90;;;;;;4955800;28;20059;-94
2023/09/09 10:53:38;;;;;;;;;;;;;;;;;;;;;
2023/09/09 10:56:18;;;;;;;15.23;13.50;;;28.00;99.90;;;;;;5013049;28;20052;-94
2023/09/09 11:17:20;;;;;;;14.52;13.20;;;28.00;99.90;;;;;;4988495;28;20623;-94
2023/09/09 11:19:58;;;;;;;14.43;13.02;;;28.00;99.90;;;;;;4989545;28;20081;-95
2023/09/09 11:22:30;;;;;;;13.60;12.48;;;27.90;99.90;;;;;;5028657;28;20586;-96
2023/09/09 11:29:23;;;;;;;12.98;11.73;;;27.90;99.90;;;;;;4968002;28;20085;-94
2023/09/09 11:32:10;;;;;;;11.48;10.50;;;27.80;99.90;;;;;;4947383;28;20434;-95
2023/09/09 11:35:33;;;;;;;;;;;;;;;;;;;;;
2023/09/09 11:43:22;;;;;;;;;;;;;;;;;;;;;
2023/09/09 12:47:11;;;;;;;9.35;8.40;;;27.50;99.90;;;;;;5941317;23;20075;31
2023/09/09 12:49:37;;;;;;;10.50;8.73;;;27.50;99.90;;;;;;4819396;29;20127;-93
2023/09/09 12:52:03;;;;;;;8.57;7.67;;;27.50;99.90;;;;;;4814507;29;20410;-94
2023/09/09 12:54:32;;;;;;;7.80;6.97;;;27.40;99.90;;;;;;4782537;29;20463;-93
2023/09/09 12:56:57;;;;;;;9.38;8.13;;;27.50;99.90;;;;;;4825612;29;20041;-93
2023/09/09 12:59:23;;;;;;;8.20;7.30;;;27.50;99.90;;;;;;4826714;29;20038;-93
2023/09/09 13:01:49;;;;;;;7.93;7.23;;;27.40;99.90;;;;;;4808678;29;20046;-93
2023/09/09 13:04:15;;;;;;;8.47;7.50;;;27.40;99.90;;;;;;4826207;29;20083;-93
2023/09/09 13:06:40;;;;;;;8.17;7.47;;;27.40;99.90;;;;;;4821842;29;20102;-95
2023/09/09 13:09:06;;;;;;;9.38;7.97;;;27.40;99.90;;;;;;4812206;29;20238;-94
2023/09/09 13:11:33;;;;;;;8.17;7.37;;;27.30;99.90;;;;;;4826594;29;20461;-93
2023/09/09 13:14:01;;;;;;;8.02;6.38;;;27.30;99.90;;;;;;4812324;29;20478;-93
2023/09/09 13:16:27;;;;;;;8.73;6.97;;;27.30;99.90;;;;;;4812960;29;20129;-94
2023/09/09 13:18:53;;;;;;;12.20;7.82;;;27.30;99.90;;;;;;4796388;29;20064;-93
2023/09/09 13:21:18;;;;;;;8.00;7.07;;;27.30;99.90;;;;;;4819206;29;20491;-93
2023/09/09 13:23:44;;;;;;;9.38;7.00;;;27.40;99.90;;;;;;4789134;29;20042;-93
2023/09/09 13:26:10;;;;;;;9.17;6.73;;;27.40;99.90;;;;;;4811701;29;20038;-93
2023/09/09 13:28:41;;;;;;;6.60;5.97;;;27.40;99.90;;;;;;4842591;29;20172;-92
2023/09/09 13:32:15;;;;;;;9.27;6.50;;;27.40;99.90;;;;;;4786197;30;20087;-93
2023/09/09 13:35:21;;;;;;;;;;;;;;;;;;;;;
2023/09/09 13:38:05;;;;;;;7.85;6.03;;;27.50;99.90;;;;;;4812695;29;20066;-93
2023/09/09 13:56:20;;;;;;;9.60;5.65;;;27.30;99.90;;;;;;4799151;29;20098;-91
2023/09/09 14:02:35;;;;;;;5.85;4.95;;;27.30;99.90;;;;;;4765705;30;20090;-93
2023/09/09 14:05:01;;;;;;;6.10;4.78;;;27.20;99.90;;;;;;4732324;30;20654;-92
2023/09/09 14:07:26;;;;;;;5.57;5.07;;;27.20;99.90;;;;;;4813338;29;20123;-92
2023/09/09 14:09:52;;;;;;;10.73;6.27;;;27.10;99.90;;;;;;4827940;29;20586;-91
2023/09/09 14:12:18;;;;;;;5.97;5.47;;;27.10;99.90;;;;;;4826168;29;20280;-91
2023/09/09 14:14:47;;;;;;;5.47;4.97;;;27.00;99.90;;;;;;4825519;29;20042;-92
2023/09/09 14:31:54;;;;;;;4.13;3.72;;;27.00;99.90;;;;;;4717832;30;20134;-91
2023/09/09 14:34:20;;;;;;;5.60;4.40;;;27.00;99.90;;;;;;4724339;29;20420;-92
2023/09/09 14:36:45;;;;;;;7.00;6.27;;;27.00;99.90;;;;;;4774219;29;20058;-92
2023/09/09 14:39:11;;;;;;;6.20;5.60;;;26.90;99.90;;;;;;4787866;29;20565;-92
2023/09/09 14:41:37;;;;;;;6.67;6.00;;;26.80;99.90;;;;;;4802932;29;20612;-91
2023/09/09 14:44:03;;;;;;;7.00;6.40;;;26.80;99.90;;;;;;4783360;29;20138;-92
2023/09/09 14:46:28;;;;;;;7.20;6.57;;;26.70;99.90;;;;;;4779838;29;20084;-91
2023/09/09 14:48:57;;;;;;;7.73;6.23;;;26.70;99.90;;;;;;4758427;29;20093;-91
2023/09/09 14:51:23;;;;;;;7.28;6.20;;;26.60;99.90;;;;;;4794476;29;20055;-92
2023/09/09 14:53:48;;;;;;;7.03;6.28;;;26.50;99.90;;;;;;4801650;29;20034;-92
2023/09/09 14:56:14;;;;;;;6.90;5.80;;;26.50;99.90;;;;;;4802510;29;20059;-93
2023/09/09 14:58:40;;;;;;;6.27;5.40;;;26.40;99.90;;;;;;4802822;29;20030;-92
2023/09/09 15:01:06;;;;;;;6.80;6.20;;;26.40;99.90;;;;;;4794880;29;20102;-92
2023/09/09 15:03:31;;;;;;;6.37;5.83;;;26.40;99.90;;;;;;4776055;29;20050;-92
2023/09/09 15:05:57;;;;;;;5.87;5.37;;;26.40;99.90;;;;;;4820630;29;20050;-91
2023/09/09 15:08:23;;;;;;;7.20;5.90;;;26.30;99.90;;;;;;4812261;29;21307;-92
2023/09/09 15:10:49;;;;;;;7.23;5.47;;;26.30;99.90;;;;;;4827871;29;20129;-91
2023/09/09 15:13:14;;;;;;;6.67;6.07;;;26.30;99.90;;;;;;4799069;29;20046;-92
2023/09/09 15:15:42;;;;;;;7.20;6.50;;;26.30;99.90;;;;;;4828627;29;20112;-91
2023/09/09 15:18:08;;;;;;;7.55;6.80;;;26.30;99.90;;;;;;4829026;29;20518;-89
2023/09/09 15:20:35;;;;;;;7.23;6.57;;;26.20;99.90;;;;;;4814350;29;20037;-90
2023/09/09 15:23:01;;;;;;;8.20;7.40;;;26.10;99.90;;;;;;4817060;29;20510;-91
2023/09/09 15:25:26;;;;;;;7.93;7.13;;;25.90;99.90;;;;;;4813077;29;20046;-90
2023/09/09 15:27:52;;;;;;;7.83;7.13;;;25.80;99.90;;;;;;4810949;29;20042;-91
2023/09/09 15:30:18;;;;;;;8.53;7.60;;;25.70;99.90;;;;;;4809664;29;20110;-91
2023/09/09 15:32:44;;;;;;;7.80;6.75;;;25.50;99.90;;;;;;4828355;29;20179;-90
2023/09/09 15:35:10;;;;;;;7.68;6.88;;;25.50;99.90;;;;;;4813018;29;20114;-92
2023/09/09 15:37:37;;;;;;;7.20;6.50;;;;;;;;;;4827735;29;20187;-91
2023/09/09 15:40:04;;;;;;;7.00;6.28;;;25.20;99.90;;;;;;4814389;29;20167;-92
2023/09/09 15:42:30;;;;;;;7.40;6.50;;;25.10;99.90;;;;;;4794735;29;20139;-92